createdAt,value
2019-05-26T00:01:42.195Z,6.97
2019-05-26T00:04:11.509Z,7.63
2019-05-26T00:06:42.550Z,6.70
2019-05-26T00:09:11.795Z,7.20
2019-05-26T00:11:41.071Z,6.63
2019-05-26T00:14:11.893Z,5.97
2019-05-26T00:16:45.248Z,5.93
2019-05-26T00:19:14.519Z,7.07
2019-05-26T00:21:43.823Z,6.80
2019-05-26T00:27:01.535Z,6.40
2019-05-26T00:29:30.794Z,6.20
2019-05-26T00:32:00.077Z,6.23
2019-05-26T00:34:29.335Z,6.77
2019-05-26T00:36:58.630Z,6.97
2019-05-26T00:39:29.979Z,8.03
2019-05-26T00:41:59.283Z,6.40
2019-05-26T00:44:38.936Z,6.83
2019-05-26T00:46:59.527Z,13.60
2019-05-26T00:49:28.756Z,7.00
2019-05-26T00:51:58.049Z,8.13
2019-05-26T00:54:27.398Z,6.83
2019-05-26T00:56:56.692Z,11.53
2019-05-26T00:59:29.183Z,8.13
2019-05-26T01:01:58.431Z,7.60
2019-05-26T01:04:31.411Z,6.50
2019-05-26T01:07:04.413Z,5.97
2019-05-26T01:09:33.738Z,6.50
2019-05-26T01:12:03.757Z,6.70
2019-05-26T01:14:33.012Z,7.27
2019-05-26T01:17:02.269Z,14.10
2019-05-26T01:19:31.523Z,7.57
2019-05-26T01:22:00.795Z,7.40
2019-05-26T01:24:30.058Z,6.50
2019-05-26T01:27:20.178Z,6.30
2019-05-26T01:29:49.450Z,6.47
2019-05-26T01:32:18.707Z,6.70
2019-05-26T01:34:53.949Z,8.87
2019-05-26T01:37:23.238Z,5.97
2019-05-26T01:39:52.506Z,7.30
2019-05-26T01:42:21.761Z,5.83
2019-05-26T01:44:50.993Z,6.63
2019-05-26T01:47:20.270Z,7.20
2019-05-26T01:49:55.743Z,6.20
2019-05-26T01:52:25.019Z,8.10
2019-05-26T01:54:54.247Z,7.07
2019-05-26T01:57:23.530Z,6.67
2019-05-26T02:00:07.976Z,6.40
2019-05-26T02:02:37.701Z,6.50
2019-05-26T02:05:09.874Z,6.57
2019-05-26T02:07:39.122Z,6.47
2019-05-26T02:10:08.515Z,6.60
2019-05-26T02:12:37.828Z,6.50
2019-05-26T02:15:08.194Z,6.77
2019-05-26T02:17:37.442Z,8.07
2019-05-26T02:20:09.780Z,6.53
2019-05-26T02:22:41.869Z,6.83
2019-05-26T02:25:14.425Z,6.10
2019-05-26T02:27:45.681Z,5.73
2019-05-26T02:30:28.343Z,5.97
2019-05-26T02:32:57.654Z,6.37
2019-05-26T02:35:26.896Z,6.03
2019-05-26T02:37:56.154Z,6.80
2019-05-26T02:40:25.601Z,6.97
2019-05-26T02:42:54.861Z,6.80
2019-05-26T02:45:24.376Z,6.03
2019-05-26T02:48:13.726Z,6.30
2019-05-26T02:50:51.963Z,6.30
2019-05-26T02:53:28.199Z,7.30
2019-05-26T02:55:55.210Z,7.17
2019-05-26T02:58:27.902Z,7.17
2019-05-26T03:00:57.470Z,7.77
2019-05-26T03:03:43.869Z,7.00
2019-05-26T03:06:14.129Z,7.27
2019-05-26T03:08:47.484Z,7.83
2019-05-26T03:11:28.533Z,8.00
2019-05-26T03:14:09.330Z,7.70
2019-05-26T03:16:38.794Z,7.77
2019-05-26T03:19:08.072Z,9.10
2019-05-26T03:21:38.117Z,8.97
2019-05-26T03:24:07.826Z,9.27
2019-05-26T03:26:37.166Z,9.23
2019-05-26T03:29:06.432Z,9.90
2019-05-26T03:31:36.975Z,10.07
2019-05-26T03:34:06.200Z,9.77
2019-05-26T03:36:37.614Z,10.20
2019-05-26T03:39:07.365Z,10.87
2019-05-26T03:41:36.938Z,9.67
2019-05-26T03:44:06.216Z,10.80
2019-05-26T03:46:35.462Z,11.27
2019-05-26T03:49:04.703Z,10.60
2019-05-26T03:51:34.318Z,11.30
2019-05-26T03:54:03.571Z,11.87
2019-05-26T03:56:32.907Z,10.93
2019-05-26T03:59:02.192Z,12.53
2019-05-26T04:01:31.423Z,15.07
2019-05-26T04:04:00.682Z,14.20
2019-05-26T04:06:29.940Z,12.93
2019-05-26T04:08:59.223Z,13.40
2019-05-26T04:11:28.478Z,13.67
2019-05-26T04:13:58.058Z,15.07
2019-05-26T04:16:27.315Z,14.93
2019-05-26T04:18:56.567Z,14.63
2019-05-26T04:21:25.834Z,14.93
2019-05-26T04:23:55.088Z,15.83
2019-05-26T04:26:39.649Z,15.03
2019-05-26T04:29:08.862Z,15.03
2019-05-26T04:31:41.851Z,14.97
2019-05-26T04:34:11.077Z,15.17
2019-05-26T04:36:40.345Z,14.77
2019-05-26T04:39:09.655Z,16.00
2019-05-26T04:41:42.543Z,16.50
2019-05-26T04:44:11.794Z,15.73
2019-05-26T04:46:41.052Z,16.57
2019-05-26T04:49:10.357Z,16.17
2019-05-26T04:51:39.609Z,15.30
2019-05-26T04:54:08.881Z,16.87
2019-05-26T04:56:38.106Z,16.30
2019-05-26T04:59:07.375Z,15.73
2019-05-26T05:01:36.627Z,16.70
2019-05-26T05:04:05.885Z,16.83
2019-05-26T05:06:35.133Z,17.27
2019-05-26T05:09:06.043Z,15.03
2019-05-26T05:11:50.729Z,16.67
2019-05-26T05:14:19.991Z,16.70
2019-05-26T05:16:49.226Z,15.23
2019-05-26T05:19:18.477Z,16.20
2019-05-26T05:21:47.733Z,15.90
2019-05-26T05:24:18.721Z,15.20
2019-05-26T05:26:55.172Z,14.20
2019-05-26T05:29:26.341Z,15.00
2019-05-26T05:31:55.575Z,14.00
2019-05-26T05:34:24.889Z,13.30
2019-05-26T05:36:54.125Z,13.53
2019-05-26T05:39:42.468Z,13.60
2019-05-26T05:42:11.797Z,12.70
2019-05-26T05:44:41.059Z,11.63
2019-05-26T05:47:10.415Z,12.23
2019-05-26T05:49:39.671Z,11.93
2019-05-26T05:52:08.907Z,11.00
2019-05-26T05:54:38.200Z,11.20
2019-05-26T05:57:07.453Z,10.30
2019-05-26T05:59:36.735Z,11.00
2019-05-26T06:02:09.301Z,11.25
2019-05-26T06:04:38.559Z,9.27
2019-05-26T06:07:07.798Z,9.13
2019-05-26T06:09:41.216Z,8.97
2019-05-26T06:12:22.202Z,8.40
2019-05-26T06:14:51.482Z,8.80
2019-05-26T06:17:22.462Z,8.90
2019-05-26T06:19:51.723Z,7.87
2019-05-26T06:22:21.320Z,7.50
2019-05-26T06:24:50.609Z,8.80
2019-05-26T06:27:19.886Z,8.30
2019-05-26T06:29:58.384Z,8.87
2019-05-26T06:32:20.178Z,8.50
2019-05-26T06:34:49.486Z,7.53
2019-05-26T06:37:18.751Z,6.83
2019-05-26T06:39:52.706Z,7.17
2019-05-26T06:42:21.960Z,7.17
2019-05-26T06:44:53.907Z,7.47
2019-05-26T06:47:22.281Z,6.90
2019-05-26T06:49:51.561Z,6.27
2019-05-26T06:52:38.090Z,6.43
2019-05-26T06:55:08.539Z,5.87
2019-05-26T06:57:37.824Z,5.73
2019-05-26T07:00:07.329Z,6.10
2019-05-26T07:05:25.014Z,6.47
2019-05-26T07:08:14.998Z,6.07
2019-05-26T07:10:44.233Z,6.43
2019-05-26T07:13:13.539Z,6.30
2019-05-26T07:15:42.808Z,6.03
2019-05-26T07:18:12.089Z,6.10
2019-05-26T07:20:56.399Z,6.00
2019-05-26T07:23:25.696Z,5.63
2019-05-26T07:25:55.037Z,5.93
2019-05-26T07:28:24.291Z,5.33
2019-05-26T07:30:53.571Z,5.10
2019-05-26T07:33:30.710Z,5.60
2019-05-26T07:36:00.012Z,4.87
2019-05-26T07:38:29.370Z,6.07
2019-05-26T07:41:06.574Z,5.67
2019-05-26T07:43:35.918Z,5.17
2019-05-26T07:46:05.170Z,5.00
2019-05-26T07:48:35.975Z,5.80
2019-05-26T07:51:05.682Z,5.30
2019-05-26T07:53:35.822Z,4.90
2019-05-26T07:56:08.097Z,4.40
2019-05-26T07:58:37.373Z,5.07
2019-05-26T08:01:06.736Z,4.57
2019-05-26T08:03:35.998Z,3.80
2019-05-26T08:06:05.292Z,3.67
2019-05-26T08:11:24.690Z,3.70
2019-05-26T08:13:53.963Z,3.50
2019-05-26T08:16:23.312Z,3.50
2019-05-26T08:18:52.564Z,3.60
2019-05-26T08:21:21.858Z,3.10
2019-05-26T08:23:51.157Z,3.50
2019-05-26T08:26:20.463Z,3.40
2019-05-26T08:28:49.784Z,3.80
2019-05-26T08:31:19.075Z,3.23
2019-05-26T08:33:50.223Z,3.70
2019-05-26T08:36:19.746Z,3.60
2019-05-26T08:38:49.353Z,3.07
2019-05-26T08:41:20.439Z,2.47
2019-05-26T08:43:53.471Z,2.87
2019-05-26T08:46:23.551Z,2.80
2019-05-26T08:48:52.867Z,2.53
2019-05-26T08:51:24.015Z,2.90
2019-05-26T08:53:53.329Z,2.50
2019-05-26T08:56:22.727Z,2.50
2019-05-26T08:58:52.033Z,2.70
2019-05-26T09:01:21.459Z,2.50
2019-05-26T09:03:53.578Z,2.50
2019-05-26T09:06:24.035Z,2.40
2019-05-26T09:08:53.683Z,2.13
2019-05-26T09:11:23.704Z,2.20
2019-05-26T09:13:53.030Z,2.10
2019-05-26T09:16:22.319Z,1.67
2019-05-26T09:18:52.895Z,1.90
2019-05-26T09:21:22.191Z,2.10
2019-05-26T09:23:54.239Z,1.90
2019-05-26T09:26:39.497Z,1.83
2019-05-26T09:29:09.136Z,1.87
2019-05-26T09:31:38.483Z,1.90
2019-05-26T09:34:15.248Z,1.80
2019-05-26T09:36:44.584Z,2.00
2019-05-26T09:39:13.894Z,1.50
2019-05-26T09:42:05.682Z,1.60
2019-05-26T09:44:35.087Z,1.70
2019-05-26T09:47:04.618Z,1.77
2019-05-26T09:49:36.736Z,1.87
2019-05-26T09:52:06.181Z,2.47
2019-05-26T09:54:35.642Z,2.30
2019-05-26T09:57:05.158Z,2.00
2019-05-26T09:59:34.482Z,1.90
2019-05-26T10:02:03.865Z,1.80
2019-05-26T10:04:33.140Z,1.70
2019-05-26T10:07:05.103Z,1.60
2019-05-26T10:09:34.616Z,1.67
2019-05-26T10:14:52.354Z,1.70
2019-05-26T10:17:23.291Z,1.47
2019-05-26T10:19:52.819Z,1.43
2019-05-26T10:22:22.176Z,1.80
2019-05-26T10:24:51.459Z,1.90
2019-05-26T10:27:24.750Z,1.50
2019-05-26T10:29:54.071Z,1.60
2019-05-26T10:32:27.564Z,1.60
2019-05-26T10:34:56.965Z,1.60
2019-05-26T10:37:26.260Z,1.40
2019-05-26T10:39:55.538Z,1.90
2019-05-26T10:42:28.820Z,1.53
2019-05-26T10:45:03.776Z,1.30
2019-05-26T10:47:33.042Z,1.30
2019-05-26T10:50:02.372Z,1.47
2019-05-26T10:52:31.639Z,1.40
2019-05-26T10:55:00.960Z,1.50
2019-05-26T11:00:19.324Z,1.50
2019-05-26T11:02:50.462Z,1.30
2019-05-26T11:05:38.815Z,1.65
2019-05-26T11:08:09.017Z,1.33
2019-05-26T11:10:38.275Z,1.67
2019-05-26T11:13:07.563Z,1.50
2019-05-26T11:15:36.880Z,1.50
2019-05-26T11:18:06.335Z,1.37
2019-05-26T11:20:35.610Z,1.50
2019-05-26T11:23:06.417Z,1.60
2019-05-26T11:25:35.725Z,1.63
2019-05-26T11:28:10.499Z,1.73
2019-05-26T11:30:59.875Z,1.90
2019-05-26T11:33:30.045Z,1.70
2019-05-26T11:35:59.714Z,1.60
2019-05-26T11:38:33.218Z,1.40
2019-05-26T11:41:00.930Z,1.53
2019-05-26T11:43:45.328Z,1.57
2019-05-26T11:46:16.922Z,1.50
2019-05-26T11:48:46.560Z,1.50
2019-05-26T11:51:19.503Z,1.50
2019-05-26T11:54:02.244Z,1.30
2019-05-26T11:56:31.549Z,1.40
2019-05-26T11:59:00.804Z,1.50
2019-05-26T12:02:00.426Z,1.43
2019-05-26T12:04:29.483Z,1.50
2019-05-26T12:06:58.806Z,1.60
2019-05-26T12:09:28.094Z,1.43
2019-05-26T12:12:01.756Z,1.30
2019-05-26T12:14:38.054Z,1.40
2019-05-26T12:17:07.336Z,1.70
2019-05-26T12:19:36.581Z,1.40
2019-05-26T12:22:07.671Z,1.43
2019-05-26T12:24:36.946Z,1.50
2019-05-26T12:27:09.359Z,1.40
2019-05-26T12:29:39.863Z,1.47
2019-05-26T12:32:10.590Z,1.50
2019-05-26T12:34:42.718Z,1.30
2019-05-26T12:37:11.955Z,1.30
2019-05-26T12:39:41.366Z,1.50
2019-05-26T12:42:10.676Z,1.40
2019-05-26T12:44:49.062Z,1.50
2019-05-26T12:47:11.103Z,1.70
2019-05-26T12:49:40.351Z,2.57
2019-05-26T12:52:09.640Z,6.17
2019-05-26T12:54:38.940Z,2.93
2019-05-26T12:57:08.199Z,4.20
2019-05-26T12:59:37.470Z,3.30
2019-05-26T13:02:09.058Z,1.90
2019-05-26T13:04:46.130Z,2.17
2019-05-26T13:07:18.338Z,2.50
2019-05-26T13:09:47.688Z,8.53
2019-05-26T13:12:17.047Z,3.10
2019-05-26T13:14:46.345Z,4.80
2019-05-26T13:17:15.675Z,1.77
2019-05-26T13:19:45.037Z,2.97
2019-05-26T13:22:14.334Z,2.07
2019-05-26T13:24:43.662Z,1.40
2019-05-26T13:27:12.930Z,4.43
2019-05-26T13:29:42.251Z,2.93
2019-05-26T13:32:11.564Z,2.97
2019-05-26T13:34:41.179Z,4.63
2019-05-26T13:37:12.250Z,1.93
2019-05-26T13:39:41.548Z,3.70
2019-05-26T13:42:10.835Z,4.70
2019-05-26T13:44:40.148Z,2.23
2019-05-26T13:47:25.120Z,2.77
2019-05-26T13:49:41.273Z,1.50
2019-05-26T13:52:10.612Z,1.80
2019-05-26T13:54:39.907Z,3.63
2019-05-26T13:57:24.587Z,2.20
2019-05-26T13:59:54.947Z,2.00
2019-05-26T14:02:52.317Z,2.10
2019-05-26T14:05:23.608Z,1.80
2019-05-26T14:07:52.910Z,1.63
2019-05-26T14:10:33.179Z,23.87
2019-05-26T14:13:02.477Z,2.13
2019-05-26T14:15:38.621Z,3.93
2019-05-26T14:18:07.337Z,2.07
2019-05-26T14:20:38.186Z,2.93
2019-05-26T14:23:08.957Z,1.87
2019-05-26T14:25:41.950Z,1.73
2019-05-26T14:28:11.285Z,1.67
2019-05-26T14:30:40.603Z,2.10
2019-05-26T14:33:33.092Z,3.60
2019-05-26T14:36:02.531Z,1.80
2019-05-26T14:38:42.889Z,2.17
2019-05-26T14:41:02.927Z,2.00
2019-05-26T14:43:32.230Z,1.80
2019-05-26T14:46:01.549Z,1.87
2019-05-26T14:48:30.835Z,1.80
2019-05-26T14:51:00.109Z,1.80
2019-05-26T14:53:29.389Z,1.73
2019-05-26T14:55:58.674Z,1.90
2019-05-26T14:58:27.948Z,1.63
2019-05-26T15:01:06.256Z,1.80
2019-05-26T15:03:35.835Z,1.60
2019-05-26T15:06:12.847Z,1.70
2019-05-26T15:08:42.133Z,1.60
2019-05-26T15:11:11.376Z,1.80
2019-05-26T15:13:44.575Z,1.80
2019-05-26T15:16:13.900Z,1.60
2019-05-26T15:18:43.195Z,1.60
2019-05-26T15:21:12.547Z,1.87
2019-05-26T15:23:41.835Z,1.80
2019-05-26T15:26:14.854Z,2.10
2019-05-26T15:28:44.182Z,2.13
2019-05-26T15:31:16.447Z,4.40
2019-05-26T15:33:45.704Z,8.57
2019-05-26T15:36:16.170Z,3.20
2019-05-26T15:38:45.678Z,2.33
2019-05-26T15:41:17.568Z,2.00
2019-05-26T15:43:46.855Z,3.67
2019-05-26T15:46:29.514Z,2.60
2019-05-26T15:48:56.280Z,2.90
2019-05-26T15:51:25.540Z,2.97
2019-05-26T15:54:02.504Z,2.17
2019-05-26T15:56:31.810Z,2.13
2019-05-26T15:59:01.949Z,2.53
2019-05-26T16:01:49.744Z,2.60
2019-05-26T16:04:19.090Z,2.13
2019-05-26T16:06:48.354Z,2.50
2019-05-26T16:09:41.677Z,2.30
2019-05-26T16:12:11.093Z,2.20
2019-05-26T16:14:40.468Z,2.00
2019-05-26T16:17:09.755Z,2.10
2019-05-26T16:19:39.075Z,2.93
2019-05-26T16:22:08.361Z,2.23
2019-05-26T16:24:37.742Z,2.20
2019-05-26T16:27:18.777Z,2.20
2019-05-26T16:29:38.182Z,2.20
2019-05-26T16:32:07.496Z,2.00
2019-05-26T16:34:36.780Z,1.90
2019-05-26T16:37:07.615Z,2.33
2019-05-26T16:39:38.489Z,2.00
2019-05-26T16:42:07.989Z,2.03
2019-05-26T16:44:37.374Z,2.20
2019-05-26T16:47:06.714Z,2.20
2019-05-26T16:49:36.043Z,2.50
2019-05-26T16:52:05.467Z,2.03
2019-05-26T16:54:47.378Z,2.20
2019-05-26T16:57:16.712Z,2.13
2019-05-26T16:59:46.039Z,1.80
2019-05-26T17:03:50.555Z,2.10
2019-05-26T17:04:46.406Z,2.10
2019-05-26T17:07:15.687Z,1.90
2019-05-26T17:09:46.915Z,2.00
2019-05-26T17:12:19.919Z,1.97
2019-05-26T17:14:49.227Z,1.90
2019-05-26T17:17:19.796Z,1.80
2019-05-26T17:19:52.463Z,1.80
2019-05-26T17:22:20.079Z,1.80
2019-05-26T17:24:49.378Z,1.90
2019-05-26T17:27:18.704Z,1.97
2019-05-26T17:29:50.369Z,1.97
2019-05-26T17:32:21.333Z,2.10
2019-05-26T17:34:54.534Z,1.73
2019-05-26T17:37:23.875Z,2.00
2019-05-26T17:39:53.282Z,2.97
2019-05-26T17:42:22.670Z,2.30
2019-05-26T17:44:52.372Z,2.77
2019-05-26T17:47:30.481Z,2.20
2019-05-26T17:49:54.499Z,2.90
2019-05-26T17:52:25.543Z,2.37
2019-05-26T17:57:43.404Z,3.07
2019-05-26T18:00:14.075Z,23.80
2019-05-26T18:02:44.939Z,5.43
2019-05-26T18:05:27.903Z,9.33
2019-05-26T18:07:57.330Z,10.23
2019-05-26T18:10:30.085Z,12.40
2019-05-26T18:12:59.433Z,2.40
2019-05-26T18:15:28.751Z,28.10
2019-05-26T18:17:58.099Z,4.73
2019-05-26T18:20:27.448Z,36.50
2019-05-26T18:22:57.206Z,19.53
2019-05-26T18:25:34.384Z,25.03
2019-05-26T18:28:06.911Z,42.63
2019-05-26T18:30:40.786Z,48.57
2019-05-26T18:33:23.005Z,23.00
2019-05-26T18:35:52.317Z,58.83
2019-05-26T18:38:27.816Z,15.43
2019-05-26T18:41:01.584Z,5.43
2019-05-26T18:43:30.974Z,5.60
2019-05-26T18:46:00.406Z,3.60
2019-05-26T18:48:29.775Z,7.60
2019-05-26T18:50:59.189Z,3.70
2019-05-26T18:53:29.867Z,14.73
2019-05-26T18:55:59.766Z,9.57
2019-05-26T18:58:29.075Z,5.27
2019-05-26T19:00:58.542Z,5.17
2019-05-26T19:03:29.682Z,5.23
2019-05-26T19:06:02.601Z,6.57
2019-05-26T19:08:32.019Z,5.40
2019-05-26T19:11:01.368Z,5.30
2019-05-26T19:16:06.109Z,3.40
2019-05-26T19:18:35.501Z,2.90
2019-05-26T19:21:05.436Z,3.37
2019-05-26T19:23:40.262Z,3.17
2019-05-26T19:26:09.615Z,3.10
2019-05-26T19:28:39.032Z,3.10
2019-05-26T19:31:11.194Z,3.10
2019-05-26T19:33:45.707Z,3.80
2019-05-26T19:36:15.039Z,2.50
2019-05-26T19:38:46.218Z,2.60
2019-05-26T19:41:15.756Z,2.93
2019-05-26T19:43:45.174Z,2.40
2019-05-26T19:46:14.600Z,2.67
2019-05-26T19:49:14.051Z,2.50
2019-05-26T19:51:25.804Z,2.20
2019-05-26T19:53:55.204Z,8.73
2019-05-26T19:56:24.598Z,2.93
2019-05-26T19:58:53.909Z,25.83
2019-05-26T20:01:23.765Z,12.97
2019-05-26T20:03:53.135Z,12.87
2019-05-26T20:06:22.600Z,4.90
2019-05-26T20:08:53.284Z,16.20
2019-05-26T20:11:22.625Z,3.40
2019-05-26T20:13:51.988Z,4.60
2019-05-26T20:16:21.289Z,15.80
2019-05-26T20:18:50.640Z,5.67
2019-05-26T20:21:20.040Z,9.13
2019-05-26T20:23:49.396Z,4.23
2019-05-26T20:26:18.744Z,9.17
2019-05-26T20:28:48.079Z,5.90
2019-05-26T20:31:23.297Z,3.60
2019-05-26T20:33:52.639Z,8.20
2019-05-26T20:36:22.075Z,20.23
2019-05-26T20:38:51.419Z,3.90
2019-05-26T20:41:20.908Z,17.47
2019-05-26T20:43:50.299Z,2.60
2019-05-26T20:46:19.617Z,2.97
2019-05-26T20:48:52.237Z,3.40
2019-05-26T20:51:31.145Z,25.50
2019-05-26T20:54:00.537Z,7.43
2019-05-26T20:56:29.882Z,8.20
2019-05-26T20:58:59.203Z,19.03
2019-05-26T21:01:28.580Z,6.90
2019-05-26T21:04:06.236Z,6.37
2019-05-26T21:06:37.555Z,25.40
2019-05-26T21:09:11.110Z,2.80
2019-05-26T21:11:53.932Z,11.10
2019-05-26T21:14:23.262Z,8.50
2019-05-26T21:16:52.577Z,4.90
2019-05-26T21:19:32.008Z,3.30
2019-05-26T21:22:01.357Z,3.70
2019-05-26T21:24:30.685Z,20.67
2019-05-26T21:27:00.085Z,28.30
2019-05-26T21:29:29.342Z,11.13
2019-05-26T21:31:58.681Z,4.60
2019-05-26T21:34:27.988Z,4.93
2019-05-26T21:36:57.339Z,3.87
2019-05-26T21:39:26.647Z,5.10
2019-05-26T21:44:59.901Z,5.20
2019-05-26T21:48:00.457Z,4.10
2019-05-26T21:50:38.687Z,5.08
2019-05-26T21:53:08.875Z,3.70
2019-05-26T21:55:38.467Z,4.03
2019-05-26T21:58:10.614Z,4.40
2019-05-26T22:00:44.578Z,4.30
2019-05-26T22:03:13.931Z,4.17
2019-05-26T22:05:43.194Z,4.83
2019-05-26T22:08:12.639Z,4.40
2019-05-26T22:10:47.571Z,5.20
2019-05-26T22:13:16.635Z,4.70
2019-05-26T22:15:46.279Z,4.43
2019-05-26T22:18:42.443Z,4.93
2019-05-26T22:21:11.686Z,5.43
2019-05-26T22:23:40.982Z,5.20
2019-05-26T22:26:29.430Z,4.60
2019-05-26T22:28:58.686Z,4.20
2019-05-26T22:31:29.281Z,4.33
2019-05-26T22:33:58.563Z,3.93
2019-05-26T22:36:29.412Z,3.90
2019-05-26T22:39:01.764Z,4.00
2019-05-26T22:41:32.406Z,4.20
2019-05-26T22:44:02.487Z,4.07
2019-05-26T22:46:31.807Z,4.23
2019-05-26T22:49:01.077Z,4.13
2019-05-26T22:51:30.353Z,4.30
2019-05-26T22:53:59.650Z,4.40
2019-05-26T22:56:28.985Z,4.33
2019-05-26T22:58:58.221Z,5.43
2019-05-26T23:01:27.504Z,6.30
2019-05-26T23:03:56.763Z,4.43
2019-05-26T23:06:26.056Z,6.53
2019-05-26T23:08:55.333Z,6.30
2019-05-26T23:11:24.596Z,4.33
2019-05-26T23:13:54.140Z,5.23
2019-05-26T23:16:23.437Z,4.70
2019-05-26T23:18:52.683Z,4.93
2019-05-26T23:21:21.961Z,5.73
2019-05-26T23:23:51.215Z,6.77
2019-05-26T23:26:20.485Z,5.20
2019-05-26T23:28:49.760Z,4.43
2019-05-26T23:31:18.991Z,5.57
2019-05-26T23:33:48.362Z,5.27
2019-05-26T23:36:17.627Z,3.93
2019-05-26T23:38:46.889Z,4.13
2019-05-26T23:41:17.558Z,4.20
2019-05-26T23:43:46.812Z,5.30
2019-05-26T23:46:16.058Z,4.17
2019-05-26T23:48:45.501Z,4.03
2019-05-26T23:51:14.744Z,3.63
2019-05-26T23:53:44.290Z,5.30
2019-05-26T23:56:13.584Z,4.50
2019-05-26T23:58:42.826Z,4.87
